createdAt,value
2022-07-30T00:00:27.701Z,49.25
2022-07-30T00:02:56.211Z,49.33
2022-07-30T00:05:24.325Z,49.95
2022-07-30T00:07:52.346Z,49.53
2022-07-30T00:10:23.141Z,49.11
2022-07-30T00:12:51.521Z,49.00
2022-07-30T00:15:19.678Z,48.94
2022-07-30T00:17:49.306Z,48.80
2022-07-30T00:20:18.491Z,49.12
2022-07-30T00:22:46.913Z,49.35
2022-07-30T00:25:15.027Z,49.17
2022-07-30T00:27:45.449Z,49.10
2022-07-30T00:30:13.966Z,49.21
2022-07-30T00:32:42.197Z,49.69
2022-07-30T00:35:11.481Z,50.11
2022-07-30T00:37:39.490Z,49.65
2022-07-30T00:40:09.786Z,49.82
2022-07-30T00:42:39.338Z,49.91
2022-07-30T00:45:10.797Z,49.89
2022-07-30T00:47:39.874Z,49.95
2022-07-30T00:50:11.159Z,50.64
2022-07-30T00:52:40.491Z,50.91
2022-07-30T00:55:11.902Z,50.63
2022-07-30T00:57:40.276Z,50.32
2022-07-30T01:00:12.380Z,50.76
2022-07-30T01:02:40.594Z,50.81
2022-07-30T01:05:09.846Z,50.85
2022-07-30T01:07:38.094Z,51.35
2022-07-30T01:10:08.018Z,51.31
2022-07-30T01:12:36.217Z,51.63
2022-07-30T01:15:06.610Z,51.65
2022-07-30T01:17:37.044Z,51.60
2022-07-30T01:20:07.065Z,51.88
2022-07-30T01:22:46.756Z,52.56
2022-07-30T01:25:22.098Z,52.24
2022-07-30T01:27:54.662Z,52.78
2022-07-30T01:30:26.574Z,52.19
2022-07-30T01:32:57.458Z,52.21
2022-07-30T01:35:28.888Z,52.08
2022-07-30T01:37:58.673Z,53.09
2022-07-30T01:40:29.175Z,52.54
2022-07-30T01:43:01.347Z,52.87
2022-07-30T01:45:31.211Z,52.49
2022-07-30T01:48:06.548Z,53.06
2022-07-30T01:50:36.632Z,53.03
2022-07-30T01:53:05.701Z,53.35
2022-07-30T01:55:38.156Z,53.78
2022-07-30T01:58:09.981Z,53.95
2022-07-30T02:00:41.359Z,54.15
2022-07-30T02:03:09.657Z,55.36
2022-07-30T02:05:39.176Z,55.27
2022-07-30T02:08:14.185Z,55.74
2022-07-30T02:10:45.279Z,55.96
2022-07-30T02:13:18.987Z,56.13
2022-07-30T02:15:52.470Z,55.69
2022-07-30T02:18:24.675Z,54.69
2022-07-30T02:20:59.893Z,55.50
2022-07-30T02:23:32.253Z,55.51
2022-07-30T02:26:01.346Z,55.19
2022-07-30T02:28:34.359Z,55.59
2022-07-30T02:31:02.846Z,55.76
2022-07-30T02:33:50.336Z,55.74
2022-07-30T02:36:21.118Z,55.66
2022-07-30T02:38:52.026Z,55.90
2022-07-30T02:41:23.400Z,55.79
2022-07-30T02:43:54.766Z,55.63
2022-07-30T02:46:25.196Z,55.69
2022-07-30T02:48:56.022Z,56.39
2022-07-30T02:51:25.813Z,56.95
2022-07-30T02:53:56.281Z,57.01
2022-07-30T02:56:25.833Z,56.47
2022-07-30T02:58:56.872Z,56.50
2022-07-30T03:01:26.091Z,56.30
2022-07-30T03:03:55.519Z,56.54
2022-07-30T03:06:25.648Z,56.31
2022-07-30T03:08:55.775Z,55.69
2022-07-30T03:11:25.946Z,56.74
2022-07-30T03:13:55.369Z,56.14
2022-07-30T03:16:26.303Z,55.90
2022-07-30T03:18:56.030Z,56.00
2022-07-30T03:21:27.494Z,56.45
2022-07-30T03:23:58.134Z,56.28
2022-07-30T03:26:28.273Z,56.35
2022-07-30T03:28:58.692Z,57.09
2022-07-30T03:31:28.571Z,56.72
2022-07-30T03:34:06.383Z,56.89
2022-07-30T03:36:35.026Z,57.44
2022-07-30T03:39:05.327Z,59.08
2022-07-30T03:41:34.681Z,59.15
2022-07-30T03:44:04.844Z,59.04
2022-07-30T03:46:33.477Z,59.98
2022-07-30T03:49:01.989Z,61.03
2022-07-30T03:51:32.955Z,60.18
2022-07-30T03:54:02.793Z,59.56
2022-07-30T03:56:31.326Z,59.90
2022-07-30T03:58:59.443Z,60.86
2022-07-30T04:01:29.098Z,60.79
2022-07-30T04:03:57.360Z,60.15
2022-07-30T04:06:25.410Z,60.29
2022-07-30T04:08:53.409Z,61.21
2022-07-30T04:11:21.574Z,61.37
2022-07-30T04:14:09.987Z,60.65
2022-07-30T04:16:46.181Z,59.87
2022-07-30T04:19:20.883Z,59.88
2022-07-30T04:21:50.826Z,60.12
2022-07-30T04:24:21.404Z,59.78
2022-07-30T04:26:51.418Z,59.45
2022-07-30T04:29:24.310Z,58.87
2022-07-30T04:31:55.550Z,59.21
2022-07-30T04:34:23.557Z,59.68
2022-07-30T04:36:51.470Z,60.49
2022-07-30T04:39:19.746Z,59.87
2022-07-30T04:41:48.773Z,59.42
2022-07-30T04:44:19.045Z,58.20
2022-07-30T04:46:47.552Z,57.36
2022-07-30T04:49:20.281Z,56.73
2022-07-30T04:51:49.466Z,56.84
2022-07-30T04:54:17.958Z,56.03
2022-07-30T04:56:52.433Z,55.90
2022-07-30T04:59:24.753Z,56.29
2022-07-30T05:01:54.658Z,56.03
2022-07-30T05:04:25.303Z,54.86
2022-07-30T05:06:55.160Z,54.41
2022-07-30T05:09:24.135Z,54.08
2022-07-30T05:11:53.606Z,53.96
2022-07-30T05:14:22.263Z,53.03
2022-07-30T05:16:50.880Z,51.90
2022-07-30T05:19:19.736Z,51.68
2022-07-30T05:21:49.207Z,51.22
2022-07-30T05:24:17.358Z,51.94
2022-07-30T05:26:46.029Z,52.37
2022-07-30T05:29:19.689Z,51.96
2022-07-30T05:31:49.045Z,52.04
2022-07-30T05:34:17.287Z,53.20
2022-07-30T05:36:45.775Z,53.67
2022-07-30T05:39:16.532Z,55.03
2022-07-30T05:41:44.647Z,54.38
2022-07-30T05:44:12.847Z,54.76
2022-07-30T05:46:40.994Z,53.60
2022-07-30T05:49:09.205Z,52.92
2022-07-30T05:51:37.287Z,54.36
2022-07-30T05:54:05.357Z,53.61
2022-07-30T05:56:36.037Z,53.14
2022-07-30T05:59:04.090Z,52.68
2022-07-30T06:01:32.237Z,53.39
2022-07-30T06:04:00.487Z,53.12
2022-07-30T06:06:28.487Z,53.85
2022-07-30T06:08:56.464Z,53.32
2022-07-30T06:11:24.552Z,52.56
2022-07-30T06:13:53.874Z,52.32
2022-07-30T06:16:22.171Z,51.96
2022-07-30T06:18:50.247Z,51.11
2022-07-30T06:21:18.547Z,50.55
2022-07-30T06:23:46.669Z,49.79
2022-07-30T06:26:15.122Z,49.57
2022-07-30T06:28:43.233Z,48.04
2022-07-30T06:31:12.666Z,48.52
2022-07-30T06:33:40.800Z,48.25
2022-07-30T06:36:09.018Z,48.06
2022-07-30T06:38:42.488Z,47.29
2022-07-30T06:41:12.825Z,47.89
2022-07-30T06:43:40.853Z,47.27
2022-07-30T06:46:09.005Z,47.32
2022-07-30T06:48:38.809Z,46.33
2022-07-30T06:51:07.090Z,46.64
2022-07-30T06:53:42.260Z,46.83
2022-07-30T06:56:10.935Z,46.54
2022-07-30T06:58:39.321Z,46.80
2022-07-30T07:01:11.480Z,47.14
2022-07-30T07:03:41.067Z,45.92
2022-07-30T07:06:09.421Z,45.78
2022-07-30T07:08:37.843Z,45.68
2022-07-30T07:11:06.016Z,45.77
2022-07-30T07:13:34.188Z,45.00
2022-07-30T07:16:02.506Z,44.61
2022-07-30T07:18:30.819Z,44.85
2022-07-30T07:21:00.201Z,44.24
2022-07-30T07:23:41.974Z,43.58
2022-07-30T07:26:11.523Z,43.73
2022-07-30T07:28:41.445Z,43.62
2022-07-30T07:31:09.921Z,43.12
2022-07-30T07:33:39.491Z,42.92
2022-07-30T07:36:09.176Z,43.78
2022-07-30T07:38:37.893Z,43.25
2022-07-30T07:41:06.538Z,44.20
2022-07-30T07:43:34.595Z,43.04
2022-07-30T07:46:02.763Z,42.77
2022-07-30T07:48:30.955Z,42.76
2022-07-30T07:51:00.586Z,42.54
2022-07-30T07:53:30.385Z,42.21
2022-07-30T07:55:58.857Z,41.50
2022-07-30T07:58:26.968Z,42.70
2022-07-30T08:00:55.795Z,42.79
2022-07-30T08:03:24.052Z,42.46
2022-07-30T08:05:58.192Z,41.96
2022-07-30T08:08:37.261Z,42.30
2022-07-30T08:11:07.077Z,41.82
2022-07-30T08:13:52.050Z,42.08
2022-07-30T08:16:21.002Z,41.35
2022-07-30T08:18:49.116Z,41.02
2022-07-30T08:21:17.386Z,41.76
2022-07-30T08:23:46.808Z,41.16
2022-07-30T08:26:15.002Z,40.92
2022-07-30T08:28:45.679Z,41.31
2022-07-30T08:31:14.066Z,41.46
2022-07-30T08:33:42.004Z,41.59
2022-07-30T08:36:10.474Z,40.34
2022-07-30T08:38:39.557Z,39.58
2022-07-30T08:41:09.298Z,40.03
2022-07-30T08:43:38.291Z,41.01
2022-07-30T08:46:10.160Z,40.94
2022-07-30T08:48:38.891Z,39.92
2022-07-30T08:51:07.638Z,39.58
2022-07-30T08:53:36.418Z,39.60
2022-07-30T08:56:06.189Z,39.35
2022-07-30T08:58:36.145Z,37.95
2022-07-30T09:01:05.301Z,37.64
2022-07-30T09:03:33.818Z,37.55
2022-07-30T09:06:03.425Z,36.99
2022-07-30T09:08:32.215Z,37.71
2022-07-30T09:11:00.831Z,36.69
2022-07-30T09:13:31.621Z,36.39
2022-07-30T09:16:02.784Z,35.78
2022-07-30T09:18:32.977Z,34.59
2022-07-30T09:21:03.124Z,34.26
2022-07-30T09:23:31.265Z,34.44
2022-07-30T09:26:00.631Z,34.42
2022-07-30T09:28:33.389Z,34.02
2022-07-30T09:31:02.830Z,34.32
2022-07-30T09:33:36.418Z,33.09
2022-07-30T09:36:07.000Z,33.43
2022-07-30T09:38:47.754Z,34.43
2022-07-30T09:41:37.800Z,34.12
2022-07-30T09:44:06.393Z,32.18
2022-07-30T09:46:47.722Z,32.90
2022-07-30T09:49:17.688Z,34.03
2022-07-30T09:51:56.250Z,34.08
2022-07-30T09:54:51.720Z,31.81
2022-07-30T09:57:26.470Z,33.07
2022-07-30T09:59:57.412Z,32.54
2022-07-30T10:02:33.972Z,32.80
2022-07-30T10:05:14.289Z,32.55
2022-07-30T10:07:51.157Z,29.06
2022-07-30T10:10:25.713Z,29.89
2022-07-30T10:12:56.311Z,31.51
2022-07-30T10:15:26.365Z,31.87
2022-07-30T10:17:58.097Z,31.39
2022-07-30T10:20:27.306Z,30.77
2022-07-30T10:22:56.250Z,31.25
2022-07-30T10:25:28.378Z,30.42
2022-07-30T10:27:57.224Z,30.10
2022-07-30T10:30:28.094Z,29.60
2022-07-30T10:33:01.581Z,29.62
2022-07-30T10:35:34.492Z,29.49
2022-07-30T10:38:13.671Z,31.49
2022-07-30T10:40:49.629Z,31.14
2022-07-30T10:43:58.216Z,30.50
2022-07-30T10:46:44.130Z,30.97
2022-07-30T10:49:19.038Z,30.63
2022-07-30T10:51:49.407Z,31.16
2022-07-30T10:54:39.784Z,30.47
2022-07-30T10:57:15.085Z,30.78
2022-07-30T11:00:15.254Z,30.20
2022-07-30T11:03:14.855Z,31.06
2022-07-30T11:05:46.185Z,29.72
2022-07-30T11:08:36.271Z,30.49
2022-07-30T11:11:19.167Z,30.18
2022-07-30T11:13:55.313Z,30.58
2022-07-30T11:16:24.696Z,29.18
2022-07-30T11:19:27.405Z,29.91
2022-07-30T11:22:26.289Z,31.23
2022-07-30T11:24:55.047Z,30.61
2022-07-30T11:27:37.511Z,31.17
2022-07-30T11:30:08.188Z,30.23
2022-07-30T11:32:36.899Z,30.69
2022-07-30T11:35:23.023Z,27.64
2022-07-30T11:38:07.013Z,27.73
2022-07-30T11:40:37.717Z,28.13
2022-07-30T11:43:35.261Z,28.48
2022-07-30T11:46:10.310Z,29.01
2022-07-30T11:48:40.723Z,29.51
2022-07-30T11:51:08.959Z,29.05
2022-07-30T11:53:38.843Z,28.08
2022-07-30T11:56:09.511Z,27.73
2022-07-30T11:58:41.939Z,27.81
2022-07-30T12:01:14.726Z,27.52
2022-07-30T12:03:44.278Z,27.54
2022-07-30T12:06:18.135Z,27.39
2022-07-30T12:08:50.666Z,27.48
2022-07-30T12:11:20.813Z,25.42
2022-07-30T12:13:59.571Z,25.98
2022-07-30T12:16:28.664Z,26.78
2022-07-30T12:18:56.883Z,26.08
2022-07-30T12:21:26.151Z,25.91
2022-07-30T12:24:00.604Z,26.59
2022-07-30T12:26:30.105Z,25.23
2022-07-30T12:28:59.442Z,24.83
2022-07-30T12:31:27.970Z,25.65
2022-07-30T12:33:58.892Z,25.64
2022-07-30T12:36:32.109Z,24.99
2022-07-30T12:39:02.493Z,24.68
2022-07-30T12:41:43.873Z,23.83
2022-07-30T12:44:12.047Z,23.71
2022-07-30T12:46:42.267Z,24.21
2022-07-30T12:49:21.476Z,23.77
2022-07-30T12:51:59.696Z,24.00
2022-07-30T12:54:30.065Z,23.73
2022-07-30T12:57:00.674Z,24.88
2022-07-30T12:59:29.991Z,24.87
2022-07-30T13:02:00.625Z,24.78
2022-07-30T13:04:29.282Z,22.69
2022-07-30T13:07:08.292Z,23.25
2022-07-30T13:09:38.475Z,23.45
2022-07-30T13:12:07.397Z,23.79
2022-07-30T13:14:35.857Z,24.33
2022-07-30T13:17:04.660Z,24.44
2022-07-30T13:19:33.016Z,25.28
2022-07-30T13:22:01.273Z,25.15
2022-07-30T13:24:29.514Z,24.93
2022-07-30T13:26:58.802Z,24.71
2022-07-30T13:29:26.809Z,23.65
2022-07-30T13:31:54.800Z,24.31
2022-07-30T13:34:22.806Z,23.95
2022-07-30T13:36:50.878Z,24.33
2022-07-30T13:39:21.359Z,24.18
2022-07-30T13:41:49.374Z,23.67
2022-07-30T13:44:18.755Z,23.87
2022-07-30T13:46:46.695Z,23.66
2022-07-30T13:49:14.695Z,24.28
2022-07-30T13:51:43.328Z,24.40
2022-07-30T13:54:13.908Z,23.59
2022-07-30T13:56:42.198Z,24.37
2022-07-30T13:59:10.800Z,23.81
2022-07-30T14:01:40.298Z,23.71
2022-07-30T14:04:08.939Z,23.69
2022-07-30T14:06:36.917Z,22.90
2022-07-30T14:09:05.185Z,23.29
2022-07-30T14:11:33.202Z,22.74
2022-07-30T14:14:01.291Z,23.73
2022-07-30T14:16:44.647Z,23.54
2022-07-30T14:19:23.146Z,24.02
2022-07-30T14:21:53.073Z,23.65
2022-07-30T14:24:22.221Z,24.06
2022-07-30T14:26:57.419Z,24.09
2022-07-30T14:29:26.180Z,24.08
2022-07-30T14:31:54.319Z,23.27
2022-07-30T14:34:24.222Z,23.67
2022-07-30T14:36:52.349Z,23.75
2022-07-30T14:39:20.956Z,23.86
2022-07-30T14:41:52.341Z,23.87
2022-07-30T14:44:24.390Z,24.05
2022-07-30T14:46:53.047Z,23.72
2022-07-30T14:49:23.957Z,24.01
2022-07-30T14:51:52.625Z,24.40
2022-07-30T14:54:20.988Z,24.30
2022-07-30T14:56:49.125Z,24.22
2022-07-30T14:59:18.007Z,24.63
2022-07-30T15:01:47.933Z,24.35
2022-07-30T15:04:16.065Z,23.74
2022-07-30T15:06:45.456Z,23.23
2022-07-30T15:09:13.469Z,23.38
2022-07-30T15:12:07.748Z,23.92
2022-07-30T15:14:29.587Z,23.68
2022-07-30T15:17:03.452Z,24.08
2022-07-30T15:19:32.133Z,23.92
2022-07-30T15:22:02.905Z,24.20
2022-07-30T15:24:32.000Z,24.43
2022-07-30T15:27:00.224Z,24.74
2022-07-30T15:29:30.188Z,25.08
2022-07-30T15:32:00.269Z,25.26
2022-07-30T15:34:29.927Z,25.73
2022-07-30T15:36:58.104Z,25.57
2022-07-30T15:39:29.521Z,25.46
2022-07-30T15:41:58.290Z,25.81
2022-07-30T15:44:26.383Z,25.86
2022-07-30T15:46:57.082Z,25.47
2022-07-30T15:49:25.092Z,25.33
2022-07-30T15:51:53.338Z,25.52
2022-07-30T15:54:23.209Z,25.19
2022-07-30T15:56:54.610Z,25.12
2022-07-30T15:59:29.902Z,25.55
2022-07-30T16:01:58.014Z,25.90
2022-07-30T16:04:31.845Z,25.79
2022-07-30T16:07:00.752Z,25.50
2022-07-30T16:09:29.011Z,25.83
2022-07-30T16:11:58.993Z,25.70
2022-07-30T16:14:27.777Z,25.92
2022-07-30T16:16:56.533Z,26.07
2022-07-30T16:19:24.518Z,26.35
2022-07-30T16:21:52.685Z,26.38
2022-07-30T16:24:20.723Z,26.67
2022-07-30T16:26:48.965Z,26.75
2022-07-30T16:29:18.989Z,27.10
2022-07-30T16:31:47.696Z,26.87
2022-07-30T16:34:15.729Z,27.03
2022-07-30T16:36:44.090Z,26.97
2022-07-30T16:39:12.174Z,26.91
2022-07-30T16:41:41.230Z,26.90
2022-07-30T16:44:09.455Z,27.07
2022-07-30T16:46:38.901Z,27.47
2022-07-30T16:49:07.517Z,27.27
2022-07-30T16:51:35.609Z,27.26
2022-07-30T16:54:03.780Z,27.47
2022-07-30T16:56:32.263Z,27.65
2022-07-30T16:59:00.306Z,28.00
2022-07-30T17:01:28.852Z,28.12
2022-07-30T17:03:58.871Z,28.17
2022-07-30T17:06:27.276Z,29.55
2022-07-30T17:08:55.703Z,29.36
2022-07-30T17:11:47.187Z,29.75
2022-07-30T17:14:12.493Z,29.89
2022-07-30T17:16:40.521Z,29.52
2022-07-30T17:19:10.090Z,30.10
2022-07-30T17:21:39.081Z,29.89
2022-07-30T17:24:11.451Z,30.45
2022-07-30T17:26:41.924Z,30.21
2022-07-30T17:29:13.909Z,30.47
2022-07-30T17:31:44.415Z,30.65
2022-07-30T17:34:18.268Z,30.99
2022-07-30T17:36:52.181Z,31.49
2022-07-30T17:40:27.183Z,31.19
2022-07-30T17:42:09.975Z,31.69
2022-07-30T17:44:39.275Z,31.56
2022-07-30T17:47:12.313Z,32.37
2022-07-30T17:49:43.789Z,32.43
2022-07-30T17:52:11.827Z,33.32
2022-07-30T17:54:40.036Z,33.37
2022-07-30T17:57:08.088Z,33.44
2022-07-30T17:59:36.071Z,33.02
2022-07-30T18:02:05.580Z,33.60
2022-07-30T18:04:34.990Z,33.55
2022-07-30T18:07:04.700Z,33.21
2022-07-30T18:09:39.269Z,33.97
2022-07-30T18:12:09.100Z,34.26
2022-07-30T18:14:37.420Z,34.57
2022-07-30T18:17:05.653Z,34.74
2022-07-30T18:19:33.776Z,34.85
2022-07-30T18:22:02.287Z,35.03
2022-07-30T18:24:32.677Z,34.80
2022-07-30T18:27:00.759Z,35.19
2022-07-30T18:29:28.851Z,35.57
2022-07-30T18:31:56.927Z,35.07
2022-07-30T18:34:25.094Z,35.08
2022-07-30T18:36:53.322Z,35.59
2022-07-30T18:39:21.458Z,35.48
2022-07-30T18:41:53.522Z,35.43
2022-07-30T18:44:22.202Z,35.52
2022-07-30T18:46:50.224Z,35.91
2022-07-30T18:49:36.212Z,35.91
2022-07-30T18:52:07.390Z,35.64
2022-07-30T18:54:36.401Z,35.82
2022-07-30T18:57:11.263Z,36.03
2022-07-30T18:59:42.990Z,35.78
2022-07-30T19:02:13.342Z,36.54
2022-07-30T19:04:41.435Z,36.13
2022-07-30T19:07:09.618Z,36.04
2022-07-30T19:09:37.632Z,36.66
2022-07-30T19:12:07.618Z,36.51
2022-07-30T19:14:35.713Z,37.40
2022-07-30T19:17:03.809Z,38.66
2022-07-30T19:19:42.325Z,39.96
2022-07-30T19:22:10.964Z,40.34
2022-07-30T19:24:39.230Z,39.60
2022-07-30T19:27:13.679Z,39.61
2022-07-30T19:29:43.506Z,39.71
2022-07-30T19:32:12.234Z,39.37
2022-07-30T19:34:41.062Z,38.89
2022-07-30T19:37:09.291Z,38.92
2022-07-30T19:39:37.338Z,38.93
2022-07-30T19:42:29.091Z,38.53
2022-07-30T19:44:58.766Z,38.80
2022-07-30T19:47:29.537Z,38.63
2022-07-30T19:50:10.254Z,38.96
2022-07-30T19:52:39.829Z,38.71
2022-07-30T19:55:30.502Z,39.60
2022-07-30T19:57:58.377Z,39.72
2022-07-30T20:00:26.359Z,39.70
2022-07-30T20:02:54.407Z,39.50
2022-07-30T20:05:24.844Z,40.13
2022-07-30T20:07:53.319Z,40.67
2022-07-30T20:10:23.932Z,40.64
2022-07-30T20:12:52.230Z,40.99
2022-07-30T20:15:21.872Z,41.71
2022-07-30T20:17:49.964Z,41.00
2022-07-30T20:20:26.341Z,41.98
2022-07-30T20:22:54.678Z,41.97
2022-07-30T20:25:22.758Z,41.77
2022-07-30T20:27:51.237Z,42.39
2022-07-30T20:30:25.020Z,42.66
2022-07-30T20:32:54.824Z,42.82
2022-07-30T20:35:24.060Z,41.87
2022-07-30T20:37:55.690Z,42.36
2022-07-30T20:40:26.649Z,41.28
2022-07-30T20:42:55.328Z,40.36
2022-07-30T20:45:24.512Z,41.42
2022-07-30T20:47:56.719Z,42.12
2022-07-30T20:50:30.739Z,41.82
2022-07-30T20:52:59.849Z,42.32
2022-07-30T20:55:28.147Z,42.98
2022-07-30T20:58:06.982Z,43.27
2022-07-30T21:00:42.228Z,43.68
2022-07-30T21:03:21.516Z,45.34
2022-07-30T21:05:51.247Z,46.61
2022-07-30T21:08:24.998Z,50.69
2022-07-30T21:10:56.277Z,56.05
2022-07-30T21:13:26.072Z,58.60
2022-07-30T21:16:02.954Z,63.66
2022-07-30T21:18:33.550Z,67.47
2022-07-30T21:21:05.625Z,70.55
2022-07-30T21:23:34.793Z,70.94
2022-07-30T21:26:07.092Z,72.52
2022-07-30T21:28:38.764Z,72.96
2022-07-30T21:31:08.818Z,73.75
2022-07-30T21:33:39.239Z,74.28
2022-07-30T21:36:10.294Z,73.78
2022-07-30T21:38:41.833Z,73.91
2022-07-30T21:41:14.092Z,73.20
2022-07-30T21:43:43.726Z,74.48
2022-07-30T21:46:12.228Z,74.45
2022-07-30T21:48:43.257Z,73.45
2022-07-30T21:51:11.706Z,73.13
2022-07-30T21:53:44.984Z,72.04
2022-07-30T21:56:15.831Z,71.71
2022-07-30T21:58:44.471Z,72.16
2022-07-30T22:01:16.851Z,71.51
2022-07-30T22:04:03.902Z,71.76
2022-07-30T22:06:35.089Z,72.77
2022-07-30T22:09:10.075Z,71.97
2022-07-30T22:11:46.984Z,72.07
2022-07-30T22:14:15.650Z,72.52
2022-07-30T22:16:46.124Z,71.36
2022-07-30T22:19:17.216Z,70.00
2022-07-30T22:21:46.452Z,69.84
2022-07-30T22:24:28.892Z,69.18
2022-07-30T22:27:00.075Z,69.06
2022-07-30T22:29:34.530Z,68.74
2022-07-30T22:32:04.125Z,68.10
2022-07-30T22:34:33.995Z,67.56
2022-07-30T22:37:02.051Z,67.63
2022-07-30T22:39:31.579Z,67.01
2022-07-30T22:42:01.590Z,66.42
2022-07-30T22:44:29.812Z,64.96
2022-07-30T22:46:57.886Z,65.10
2022-07-30T22:49:50.292Z,65.27
2022-07-30T22:52:20.331Z,64.85
2022-07-30T22:54:53.450Z,63.60
2022-07-30T22:57:22.786Z,63.06
2022-07-30T22:59:59.765Z,62.24
2022-07-30T23:02:29.055Z,62.27
2022-07-30T23:04:57.074Z,61.79
2022-07-30T23:07:34.150Z,61.72
2022-07-30T23:10:17.067Z,61.73
2022-07-30T23:12:47.709Z,61.43
2022-07-30T23:15:16.191Z,61.38
2022-07-30T23:17:44.522Z,61.13
2022-07-30T23:20:15.227Z,61.24
2022-07-30T23:22:45.005Z,61.34
2022-07-30T23:25:14.712Z,61.69
2022-07-30T23:27:43.226Z,62.64
2022-07-30T23:30:12.541Z,63.11
2022-07-30T23:32:41.045Z,62.52
2022-07-30T23:35:11.157Z,62.01
2022-07-30T23:37:49.024Z,62.32
2022-07-30T23:40:19.869Z,61.80
2022-07-30T23:42:50.177Z,64.20
2022-07-30T23:45:18.491Z,62.66
2022-07-30T23:47:52.865Z,64.29
2022-07-30T23:50:32.229Z,63.86
2022-07-30T23:53:00.705Z,64.69
2022-07-30T23:55:30.262Z,66.89
2022-07-30T23:57:58.950Z,66.44
